createdAt,value
2022-09-10T00:00:00.372Z,181.4
2022-09-10T00:05:00.369Z,180.6
2022-09-10T00:10:00.397Z,172.3
2022-09-10T00:15:00.389Z,179.4
2022-09-10T00:20:00.479Z,180.4
2022-09-10T00:25:08.623Z,191.1
2022-09-10T00:30:00.440Z,191.6
2022-09-10T00:35:00.402Z,183.9
2022-09-10T00:40:00.753Z,157.8
2022-09-10T00:45:00.385Z,151.4
2022-09-10T00:50:00.346Z,158.9
2022-09-10T00:55:00.357Z,180.3
2022-09-10T01:00:00.411Z,67.9
2022-09-10T01:05:00.473Z,67.5
2022-09-10T01:10:00.347Z,67.5
2022-09-10T01:15:00.435Z,67.5
2022-09-10T01:20:00.348Z,67.5
2022-09-10T01:25:00.362Z,148.6
2022-09-10T01:30:00.389Z,190.5
2022-09-10T01:35:00.388Z,182.8
2022-09-10T01:40:00.610Z,175.2
2022-09-10T01:45:00.417Z,178.4
2022-09-10T01:50:00.387Z,202.1
2022-09-10T01:55:00.373Z,194.4
2022-09-10T02:00:00.342Z,191.7
2022-09-10T02:05:00.349Z,173.7
2022-09-10T02:10:00.362Z,189.0
2022-09-10T02:15:00.325Z,180.7
2022-09-10T02:20:00.366Z,184.6
2022-09-10T02:25:00.341Z,191.3
2022-09-10T02:30:00.398Z,194.8
2022-09-10T02:35:00.382Z,183.1
2022-09-10T02:40:00.814Z,200.8
2022-09-10T02:45:00.384Z,199.5
2022-09-10T02:50:00.345Z,199.0
2022-09-10T02:55:00.382Z,177.1
2022-09-10T03:00:00.345Z,200.3
2022-09-10T03:05:00.366Z,202.8
2022-09-10T03:10:00.339Z,202.6
2022-09-10T03:15:00.374Z,184.3
2022-09-10T03:20:00.347Z,196.1
2022-09-10T03:25:00.355Z,190.7
2022-09-10T03:30:00.383Z,202.9
2022-09-10T03:35:00.411Z,194.1
2022-09-10T03:40:00.603Z,201.8
2022-09-10T03:45:00.396Z,201.7
2022-09-10T03:50:00.385Z,158.0
2022-09-10T03:55:00.405Z,197.6
2022-09-10T04:00:00.370Z,202.5
2022-09-10T04:05:00.397Z,202.5
2022-09-10T04:10:00.376Z,172.1
2022-09-10T04:15:00.415Z,173.2
2022-09-10T04:20:00.357Z,200.4
2022-09-10T04:25:00.384Z,180.4
2022-09-10T04:30:00.409Z,158.8
2022-09-10T04:35:00.409Z,157.5
2022-09-10T04:40:00.704Z,157.5
2022-09-10T04:45:00.412Z,157.5
2022-09-10T04:50:00.407Z,179.3
2022-09-10T04:55:00.424Z,186.0
2022-09-10T05:00:00.420Z,187.2
2022-09-10T05:05:00.417Z,197.7
2022-09-10T05:10:02.927Z,205.7
2022-09-10T05:15:00.395Z,202.9
2022-09-10T05:20:00.418Z,199.2
2022-09-10T05:25:00.693Z,191.2
2022-09-10T05:30:00.379Z,193.2
2022-09-10T05:35:00.397Z,197.4
2022-09-10T05:40:00.669Z,180.7
2022-09-10T05:45:00.364Z,204.0
2022-09-10T05:50:00.371Z,201.8
2022-09-10T05:55:00.356Z,201.7
2022-09-10T06:00:00.355Z,197.7
2022-09-10T06:05:00.354Z,187.3
2022-09-10T06:10:00.492Z,195.6
2022-09-10T06:15:00.387Z,189.7
2022-09-10T06:20:00.394Z,178.7
2022-09-10T06:25:00.642Z,194.5
2022-09-10T06:30:00.382Z,200.9
2022-09-10T06:35:00.379Z,202.9
2022-09-10T06:40:00.711Z,190.5
2022-09-10T06:45:00.412Z,198.4
2022-09-10T06:50:00.373Z,196.2
2022-09-10T06:55:00.426Z,196.2
2022-09-10T07:00:00.391Z,182.9
2022-09-10T07:05:00.403Z,181.5
2022-09-10T07:10:00.407Z,182.1
2022-09-10T07:15:00.396Z,191.3
2022-09-10T07:20:00.404Z,179.3
2022-09-10T07:25:00.665Z,198.7
2022-09-10T07:30:00.381Z,196.1
2022-09-10T07:35:00.392Z,197.8
2022-09-10T07:40:00.614Z,193.3
2022-09-10T07:45:00.411Z,218.6
2022-09-10T07:50:00.417Z,193.2
2022-09-10T07:55:00.369Z,213.9
2022-09-10T08:00:00.440Z,203.2
2022-09-10T08:05:00.401Z,240.8
2022-09-10T08:10:00.358Z,188.2
2022-09-10T08:15:00.381Z,218.9
2022-09-10T08:20:00.378Z,238.9
2022-09-10T08:25:00.444Z,199.8
2022-09-10T08:30:00.418Z,276.8
2022-09-10T08:35:00.390Z,248.9
2022-09-10T08:40:00.588Z,247.6
2022-09-10T08:45:00.409Z,310.6
2022-09-10T08:50:00.402Z,311.4
2022-09-10T08:55:00.417Z,255.7
2022-09-10T09:00:00.388Z,227.1
2022-09-10T09:05:00.391Z,249.7
2022-09-10T09:10:00.375Z,257.0
2022-09-10T09:15:00.435Z,312.1
2022-09-10T09:20:00.465Z,284.0
2022-09-10T09:25:00.464Z,180.3
2022-09-10T09:30:00.373Z,176.7
2022-09-10T09:35:00.436Z,233.7
2022-09-10T09:40:00.711Z,260.3
2022-09-10T09:45:00.410Z,303.5
2022-09-10T09:50:00.390Z,290.2
2022-09-10T09:55:16.195Z,279.9
2022-09-10T10:00:00.396Z,238.7
2022-09-10T10:05:00.388Z,225.2
2022-09-10T10:10:00.411Z,180.5
2022-09-10T10:15:00.403Z,224.4
2022-09-10T10:20:00.391Z,190.8
2022-09-10T10:25:00.383Z,214.2
2022-09-10T10:30:00.472Z,206.1
2022-09-10T10:35:00.431Z,248.9
2022-09-10T10:40:00.673Z,240.0
2022-09-10T10:45:00.394Z,217.3
2022-09-10T10:50:00.347Z,227.5
2022-09-10T10:55:00.396Z,198.1
2022-09-10T11:00:00.404Z,200.5
2022-09-10T11:05:00.425Z,210.2
2022-09-10T11:10:00.427Z,270.1
2022-09-10T11:15:00.388Z,210.6
2022-09-10T11:20:30.049Z,220.2
2022-09-10T11:25:00.403Z,216.0
2022-09-10T11:30:00.402Z,279.3
2022-09-10T11:35:00.478Z,288.5
2022-09-10T11:40:00.606Z,250.9
2022-09-10T11:45:00.409Z,194.8
2022-09-10T11:50:00.450Z,254.7
2022-09-10T11:55:00.469Z,263.9
2022-09-10T12:00:00.408Z,267.0
2022-09-10T12:05:00.402Z,261.9
2022-09-10T12:10:00.424Z,298.5
2022-09-10T12:15:00.408Z,226.8
2022-09-10T12:20:00.356Z,258.7
2022-09-10T12:25:00.385Z,293.4
2022-09-10T12:30:00.346Z,290.3
2022-09-10T12:35:00.359Z,292.6
2022-09-10T12:40:00.645Z,267.3
2022-09-10T12:45:00.503Z,327.7
2022-09-10T12:50:00.413Z,281.7
2022-09-10T12:55:00.422Z,243.2
2022-09-10T13:00:00.426Z,321.0
2022-09-10T13:05:00.348Z,293.3
2022-09-10T13:10:00.527Z,184.1
2022-09-10T13:15:00.407Z,298.3
2022-09-10T13:20:00.612Z,203.4
2022-09-10T13:25:00.391Z,273.2
2022-09-10T13:30:00.646Z,320.7
2022-09-10T13:35:00.352Z,271.7
2022-09-10T13:40:01.071Z,263.0
2022-09-10T13:45:00.378Z,239.9
2022-09-10T13:50:00.999Z,221.8
2022-09-10T13:55:00.357Z,242.8
2022-09-10T14:00:00.798Z,222.8
2022-09-10T14:05:00.356Z,217.1
2022-09-10T14:10:00.777Z,210.0
2022-09-10T14:15:00.398Z,192.3
2022-09-10T14:20:00.585Z,224.4
2022-09-10T14:25:00.369Z,241.1
2022-09-10T14:30:00.443Z,224.3
2022-09-10T14:35:07.917Z,220.8
2022-09-10T14:40:01.102Z,197.9
2022-09-10T14:45:00.428Z,198.1
2022-09-10T14:50:07.538Z,186.9
2022-09-10T14:55:00.397Z,196.3
2022-09-10T15:00:00.823Z,191.2
2022-09-10T15:05:00.616Z,200.1
2022-09-10T15:10:00.347Z,198.2
2022-09-10T15:15:00.402Z,191.6
2022-09-10T15:20:00.384Z,197.3
2022-09-10T15:25:11.918Z,199.2
2022-09-10T15:30:00.383Z,190.4
2022-09-10T15:35:00.381Z,219.6
2022-09-10T15:40:00.617Z,202.9
2022-09-10T15:45:00.401Z,190.6
2022-09-10T15:50:00.359Z,218.1
2022-09-10T15:55:00.366Z,236.9
2022-09-10T16:00:00.470Z,220.8
2022-09-10T16:05:00.387Z,224.9
2022-09-10T16:10:00.419Z,242.7
2022-09-10T16:15:00.441Z,237.5
2022-09-10T16:20:00.381Z,222.0
2022-09-10T16:25:00.395Z,228.7
2022-09-10T16:30:00.389Z,236.3
2022-09-10T16:35:00.470Z,270.3
2022-09-10T16:40:00.805Z,227.3
2022-09-10T16:45:00.382Z,237.5
2022-09-10T16:50:00.393Z,266.5
2022-09-10T16:55:00.390Z,303.3
2022-09-10T17:00:00.461Z,286.5
2022-09-10T17:05:00.380Z,292.9
2022-09-10T17:10:01.490Z,281.0
2022-09-10T17:15:00.428Z,270.5
2022-09-10T17:20:00.385Z,247.8
2022-09-10T17:25:00.426Z,237.2
2022-09-10T17:30:00.442Z,248.7
2022-09-10T17:35:00.380Z,247.5
2022-09-10T17:40:00.595Z,247.5
2022-09-10T17:45:00.471Z,247.5
2022-09-10T17:50:00.389Z,247.5
2022-09-10T17:55:00.428Z,231.9
2022-09-10T18:00:00.471Z,247.4
2022-09-10T18:05:00.414Z,242.9
2022-09-10T18:10:00.378Z,196.6
2022-09-10T18:15:00.399Z,185.6
2022-09-10T18:20:00.410Z,181.0
2022-09-10T18:25:00.416Z,286.9
2022-09-10T18:30:00.346Z,307.8
2022-09-10T18:35:00.367Z,335.0
2022-09-10T18:40:00.710Z,323.2
2022-09-10T18:45:00.403Z,329.6
2022-09-10T18:50:00.398Z,313.6
2022-09-10T18:55:00.453Z,220.4
2022-09-10T19:00:00.439Z,202.6
2022-09-10T19:05:12.828Z,238.3
2022-09-10T19:10:00.363Z,247.4
2022-09-10T19:15:00.403Z,250.8
2022-09-10T19:20:00.398Z,293.3
2022-09-10T19:25:00.438Z,292.5
2022-09-10T19:30:00.334Z,270.6
2022-09-10T19:35:00.382Z,270.0
2022-09-10T19:40:00.690Z,311.3
2022-09-10T19:45:00.433Z,354.1
2022-09-10T19:50:00.398Z,318.1
2022-09-10T19:55:00.404Z,336.6
2022-09-10T20:00:00.414Z,309.8
2022-09-10T20:05:00.393Z,326.7
2022-09-10T20:10:00.341Z,317.7
2022-09-10T20:15:00.392Z,317.0
2022-09-10T20:20:00.385Z,263.0
2022-09-10T20:25:00.435Z,247.6
2022-09-10T20:30:00.444Z,225.5
2022-09-10T20:35:00.428Z,225.0
2022-09-10T20:40:00.636Z,225.0
2022-09-10T20:45:00.406Z,255.1
2022-09-10T20:50:00.404Z,292.3
2022-09-10T20:55:00.383Z,281.0
2022-09-10T21:00:00.382Z,204.8
2022-09-10T21:05:00.410Z,202.5
2022-09-10T21:10:00.374Z,243.4
2022-09-10T21:15:00.417Z,247.5
2022-09-10T21:20:00.411Z,247.5
2022-09-10T21:25:00.402Z,258.8
2022-09-10T21:30:00.394Z,293.8
2022-09-10T21:35:00.480Z,287.9
2022-09-10T21:40:01.080Z,283.1
2022-09-10T21:45:00.451Z,299.8
2022-09-10T21:50:00.488Z,292.9
2022-09-10T21:55:00.919Z,354.5
2022-09-10T22:00:00.528Z,314.9
2022-09-10T22:05:00.371Z,296.3
2022-09-10T22:10:00.548Z,296.1
2022-09-10T22:15:00.374Z,283.2
2022-09-10T22:20:00.412Z,299.1
2022-09-10T22:25:00.389Z,301.9
2022-09-10T22:30:00.462Z,314.5
2022-09-10T22:35:00.446Z,247.8
2022-09-10T22:40:00.772Z,241.2
2022-09-10T22:45:00.372Z,237.2
2022-09-10T22:50:00.367Z,233.6
2022-09-10T22:55:00.407Z,248.1
2022-09-10T23:00:00.404Z,247.6
2022-09-10T23:05:00.351Z,268.4
2022-09-10T23:10:00.366Z,270.0
2022-09-10T23:15:00.394Z,270.0
2022-09-10T23:20:00.360Z,293.3
2022-09-10T23:25:00.379Z,311.5
2022-09-10T23:30:01.055Z,316.6
2022-09-10T23:35:00.487Z,302.6
2022-09-10T23:40:00.735Z,314.6
2022-09-10T23:45:00.381Z,282.4
2022-09-10T23:50:00.357Z,284.0
2022-09-10T23:55:00.395Z,312.3
